createdAt,value
2018-02-09T07:35:11.120Z,1006.45
2018-02-09T07:36:11.157Z,1006.41
2018-02-09T07:49:45.661Z,1006.38
2018-02-09T07:50:45.698Z,1006.36
2018-02-09T07:51:45.738Z,1006.40
2018-02-09T07:52:45.779Z,1006.37
2018-02-09T07:53:45.822Z,1006.38
2018-02-09T07:54:45.863Z,1006.39
2018-02-09T07:55:45.907Z,1006.42
2018-02-09T07:56:45.952Z,1006.38
2018-02-09T07:57:45.998Z,1006.43
2018-02-09T07:58:46.046Z,1006.40
2018-02-09T07:59:46.093Z,1006.39
2018-02-09T08:00:46.139Z,1006.34
2018-02-09T08:01:46.188Z,1006.36
2018-02-09T08:02:46.238Z,1006.34
2018-02-09T08:03:46.284Z,1006.39
2018-02-09T08:04:46.334Z,1006.37
2018-02-09T08:05:46.383Z,1006.31
2018-02-09T08:06:46.435Z,1006.32
2018-02-09T08:07:46.484Z,1006.31
2018-02-09T08:08:46.535Z,1006.31
2018-02-09T08:09:46.586Z,1006.30
2018-02-09T08:10:46.637Z,1006.30
2018-02-09T08:11:46.686Z,1006.28
2018-02-09T08:12:46.737Z,1006.24
2018-02-09T08:13:47.285Z,1006.30
2018-02-09T08:14:46.841Z,1006.23
2018-02-09T08:15:46.890Z,1006.26
2018-02-09T08:16:46.944Z,1006.28
2018-02-09T08:17:47.651Z,1006.21
2018-02-09T08:18:47.369Z,1006.26
2018-02-09T08:19:47.100Z,1006.22
2018-02-09T08:20:47.151Z,1006.20
2018-02-09T08:21:47.205Z,1006.25
2018-02-09T08:22:47.261Z,1006.26
2018-02-09T08:23:47.311Z,1006.25
2018-02-09T08:24:47.360Z,1006.21
2018-02-09T08:25:47.414Z,1006.19
2018-02-09T08:26:47.467Z,1006.18
2018-02-09T08:27:47.519Z,1006.16
2018-02-09T08:28:47.572Z,1006.14
2018-02-09T08:29:47.626Z,1006.18
2018-02-09T08:30:47.680Z,1006.10
2018-02-09T08:31:47.730Z,1006.06
2018-02-09T08:32:47.784Z,1006.10
2018-02-09T08:33:47.838Z,1006.04
2018-02-09T08:34:47.892Z,1006.05
2018-02-09T08:35:48.226Z,1006.03
2018-02-09T08:36:48.001Z,1006.07
2018-02-09T08:37:48.057Z,1006.05
2018-02-09T08:38:48.106Z,1006.05
2018-02-09T08:39:48.159Z,1006.03
2018-02-09T08:40:48.213Z,1006.03
2018-02-09T08:41:48.265Z,1006.02
2018-02-09T08:42:48.319Z,1005.97
2018-02-09T08:43:48.374Z,1005.98
2018-02-09T08:44:48.427Z,1006.02
2018-02-09T08:45:48.481Z,1006.00
2018-02-09T08:46:48.534Z,1006.00
2018-02-09T08:47:48.587Z,1005.99
2018-02-09T08:48:48.641Z,1005.97
2018-02-09T08:49:48.695Z,1006.01
2018-02-09T08:50:48.750Z,1005.98
2018-02-09T08:51:48.801Z,1005.99
2018-02-09T08:52:48.855Z,1006.00
2018-02-09T08:53:48.911Z,1006.04
2018-02-09T08:54:48.965Z,1006.02
2018-02-09T08:55:49.018Z,1005.99
2018-02-09T08:56:49.071Z,1005.98
2018-02-09T08:57:49.125Z,1006.02
2018-02-09T08:58:49.181Z,1005.99
2018-02-09T08:59:49.234Z,1005.95
2018-02-09T09:00:49.287Z,1005.99
2018-02-09T09:01:49.343Z,1005.95
2018-02-09T09:02:49.446Z,1005.95
2018-02-09T09:03:49.776Z,1005.96
2018-02-09T09:04:49.505Z,1005.92
2018-02-09T09:05:49.560Z,1005.96
2018-02-09T09:06:49.642Z,1005.97
2018-02-09T09:07:49.671Z,1005.93
2018-02-09T09:08:49.722Z,1005.95
2018-02-09T09:09:49.777Z,1005.89
2018-02-09T09:10:49.853Z,1005.90
2018-02-09T09:11:49.885Z,1005.87
2018-02-09T09:12:49.939Z,1005.89
2018-02-09T09:13:49.995Z,1005.91
2018-02-09T09:14:50.048Z,1005.94
2018-02-09T09:15:50.103Z,1005.93
2018-02-09T09:16:50.161Z,1005.93
2018-02-09T09:17:50.211Z,1005.92
2018-02-09T09:18:50.267Z,1005.87
2018-02-09T09:19:50.321Z,1005.89
2018-02-09T09:20:50.375Z,1005.86
2018-02-09T09:21:50.429Z,1005.84
2018-02-09T09:22:50.485Z,1005.82
2018-02-09T09:23:50.538Z,1005.78
2018-02-09T09:24:50.593Z,1005.75
2018-02-09T09:25:50.648Z,1005.74
2018-02-09T09:26:50.703Z,1005.69
2018-02-09T09:27:50.757Z,1005.74
2018-02-09T09:28:50.812Z,1005.73
2018-02-09T09:29:50.865Z,1005.70
2018-02-09T09:30:50.921Z,1005.71
2018-02-09T09:31:50.975Z,1005.69
2018-02-09T09:32:51.030Z,1005.72
2018-02-09T09:33:51.085Z,1005.66
2018-02-09T09:34:51.140Z,1005.68
2018-02-09T09:35:51.195Z,1005.65
2018-02-09T09:36:51.248Z,1005.65
2018-02-09T09:37:51.302Z,1005.62
2018-02-09T09:38:51.359Z,1005.62
2018-02-09T09:39:51.413Z,1005.64
2018-02-09T09:40:51.468Z,1005.64
2018-02-09T09:41:51.521Z,1005.64
2018-02-09T09:42:51.577Z,1005.60
2018-02-09T09:43:51.630Z,1005.60
2018-02-09T09:44:51.685Z,1005.63
2018-02-09T09:45:51.741Z,1005.62
2018-02-09T09:46:51.796Z,1005.56
2018-02-09T09:47:51.848Z,1005.57
2018-02-09T09:48:51.904Z,1005.53
2018-02-09T09:49:51.958Z,1005.54
2018-02-09T09:50:52.013Z,1005.51
2018-02-09T09:51:52.067Z,1005.51
2018-02-09T09:52:52.121Z,1005.53
2018-02-09T09:53:52.276Z,1005.50
2018-02-09T09:54:52.232Z,1005.52
2018-02-09T09:55:52.286Z,1005.51
2018-02-09T09:56:52.341Z,1005.45
2018-02-09T09:57:52.396Z,1005.44
2018-02-09T09:58:52.450Z,1005.45
2018-02-09T09:59:52.504Z,1005.47
2018-02-09T10:00:52.558Z,1005.41
2018-02-09T10:01:52.615Z,1005.43
2018-02-09T10:02:52.669Z,1005.42
2018-02-09T10:03:52.723Z,1005.43
2018-02-09T10:04:52.779Z,1005.43
2018-02-09T10:05:52.834Z,1005.40
2018-02-09T10:06:52.888Z,1005.40
2018-02-09T10:07:52.942Z,1005.39
2018-02-09T10:08:52.998Z,1005.39
2018-02-09T10:09:53.053Z,1005.36
2018-02-09T10:10:53.107Z,1005.36
2018-02-09T10:11:53.162Z,1005.39
2018-02-09T10:12:53.218Z,1005.36
2018-02-09T10:13:53.271Z,1005.36
2018-02-09T10:14:53.328Z,1005.37
2018-02-09T10:15:53.384Z,1005.37
2018-02-09T10:16:53.438Z,1005.32
2018-02-09T10:17:53.491Z,1005.31
2018-02-09T10:18:53.547Z,1005.28
2018-02-09T10:19:53.601Z,1005.28
2018-02-09T10:20:53.657Z,1005.27
2018-02-09T10:21:53.862Z,1005.25
2018-02-09T10:22:53.767Z,1005.26
2018-02-09T10:23:53.820Z,1005.26
2018-02-09T10:24:53.877Z,1005.24
2018-02-09T10:25:53.933Z,1005.19
2018-02-09T10:26:53.987Z,1005.16
2018-02-09T10:27:54.041Z,1005.14
2018-02-09T10:28:54.094Z,1005.11
2018-02-09T10:29:54.151Z,1005.11
2018-02-09T10:30:54.206Z,1005.11
2018-02-09T10:31:54.260Z,1005.14
2018-02-09T10:32:54.316Z,1005.10
2018-02-09T10:33:54.378Z,1005.15
2018-02-09T10:34:55.023Z,1005.08
2018-02-09T10:35:54.479Z,1005.07
2018-02-09T10:36:54.534Z,1005.10
2018-02-09T10:37:54.589Z,1005.08
2018-02-09T10:38:54.644Z,1005.09
2018-02-09T10:39:54.698Z,1005.07
2018-02-09T10:40:54.754Z,1005.07
2018-02-09T10:41:54.808Z,1005.04
2018-02-09T10:42:55.365Z,1005.03
2018-02-09T10:43:54.918Z,1005.05
2018-02-09T10:44:55.292Z,1005.02
2018-02-09T10:45:55.028Z,1005.04
2018-02-09T10:46:55.083Z,1005.03
2018-02-09T10:47:55.173Z,1005.01
2018-02-09T10:48:55.195Z,1004.98
2018-02-09T10:49:55.258Z,1004.97
2018-02-09T10:50:55.303Z,1004.98
2018-02-09T10:51:55.357Z,1004.99
2018-02-09T10:52:55.415Z,1004.96
2018-02-09T10:53:55.465Z,1004.97
2018-02-09T10:54:55.521Z,1004.92
2018-02-09T10:55:55.574Z,1004.90
2018-02-09T10:56:55.631Z,1004.92
2018-02-09T10:57:55.685Z,1004.91
2018-02-09T10:58:55.740Z,1004.87
2018-02-09T10:59:55.793Z,1004.85
2018-02-09T11:00:55.849Z,1004.87
2018-02-09T11:01:55.904Z,1004.81
2018-02-09T11:02:55.992Z,1004.82
2018-02-09T11:03:56.046Z,1004.81
2018-02-09T11:04:56.100Z,1004.80
2018-02-09T11:05:56.127Z,1004.76
2018-02-09T11:06:56.178Z,1004.77
2018-02-09T11:07:56.231Z,1004.76
2018-02-09T11:08:56.286Z,1004.76
2018-02-09T11:09:56.340Z,1004.76
2018-02-09T11:10:56.397Z,1004.74
2018-02-09T11:11:56.449Z,1004.71
2018-02-09T11:12:56.504Z,1004.75
2018-02-09T11:13:56.558Z,1004.73
2018-02-09T11:14:56.614Z,1004.72
2018-02-09T11:15:56.668Z,1004.71
2018-02-09T11:16:56.726Z,1004.74
2018-02-09T11:17:56.778Z,1004.71
2018-02-09T11:18:56.832Z,1004.71
2018-02-09T11:19:56.887Z,1004.71
2018-02-09T11:20:56.941Z,1004.68
2018-02-09T11:21:56.996Z,1004.66
2018-02-09T11:22:57.052Z,1004.67
2018-02-09T11:23:57.107Z,1004.66
2018-02-09T11:24:57.161Z,1004.68
2018-02-09T11:25:57.466Z,1004.63
2018-02-09T11:26:57.272Z,1004.65
2018-02-09T11:27:57.327Z,1004.64
2018-02-09T11:28:57.380Z,1004.57
2018-02-09T11:29:57.442Z,1004.63
2018-02-09T11:30:57.489Z,1004.61
2018-02-09T11:31:57.603Z,1004.62
2018-02-09T11:32:57.602Z,1004.54
2018-02-09T11:33:57.653Z,1004.55
2018-02-09T11:34:57.708Z,1004.55
2018-02-09T11:35:57.762Z,1004.57
2018-02-09T11:36:57.818Z,1004.53
2018-02-09T11:37:57.872Z,1004.55
2018-02-09T11:38:57.928Z,1004.54
2018-02-09T11:39:57.981Z,1004.52
2018-02-09T11:40:58.039Z,1004.53
2018-02-09T11:41:58.092Z,1004.56
2018-02-09T11:42:58.147Z,1004.56
2018-02-09T11:43:58.200Z,1004.53
2018-02-09T11:44:58.256Z,1004.54
2018-02-09T11:45:58.310Z,1004.52
2018-02-09T11:46:58.366Z,1004.53
2018-02-09T11:47:58.420Z,1004.53
2018-02-09T11:48:58.474Z,1004.51
2018-02-09T11:49:58.533Z,1004.52
2018-02-09T11:50:58.584Z,1004.47
2018-02-09T11:51:58.639Z,1004.47
2018-02-09T11:52:58.696Z,1004.47
2018-02-09T11:53:58.783Z,1004.45
2018-02-09T11:54:58.805Z,1004.43
2018-02-09T11:55:58.861Z,1004.44
2018-02-09T11:56:58.913Z,1004.41
2018-02-09T11:57:58.968Z,1004.43
2018-02-09T11:58:59.024Z,1004.43
2018-02-09T11:59:59.080Z,1004.42
2018-02-09T12:00:59.133Z,1004.40
2018-02-09T12:01:59.188Z,1004.41
2018-02-09T12:02:59.244Z,1004.37
2018-02-09T12:03:59.298Z,1004.38
2018-02-09T12:04:59.352Z,1004.37
2018-02-09T12:05:59.407Z,1004.36
2018-02-09T12:06:59.491Z,1004.32
2018-02-09T12:07:59.517Z,1004.38
2018-02-09T12:09:00.161Z,1004.32
2018-02-09T12:09:59.629Z,1004.31
2018-02-09T12:10:59.683Z,1004.27
2018-02-09T12:11:59.738Z,1004.24
2018-02-09T12:12:59.793Z,1004.29
2018-02-09T12:13:59.848Z,1004.31
2018-02-09T12:14:59.903Z,1004.28
2018-02-09T12:15:59.957Z,1004.25
2018-02-09T12:17:00.016Z,1004.25
2018-02-09T12:18:00.068Z,1004.29
2018-02-09T12:19:00.123Z,1004.25
2018-02-09T12:20:00.178Z,1004.23
2018-02-09T12:21:00.232Z,1004.26
2018-02-09T12:22:00.288Z,1004.26
2018-02-09T12:23:00.342Z,1004.25
2018-02-09T12:24:00.397Z,1004.25
2018-02-09T12:25:00.452Z,1004.20
2018-02-09T12:26:00.507Z,1004.22
2018-02-09T12:27:00.562Z,1004.19
2018-02-09T12:28:00.615Z,1004.18
2018-02-09T12:29:00.671Z,1004.19
2018-02-09T12:30:00.727Z,1004.22
2018-02-09T12:31:00.782Z,1004.19
2018-02-09T12:32:01.580Z,1004.24
2018-02-09T12:33:00.891Z,1004.20
2018-02-09T12:34:00.946Z,1004.18
2018-02-09T12:35:01.002Z,1004.19
2018-02-09T12:36:01.054Z,1004.22
2018-02-09T12:37:01.109Z,1004.20
2018-02-09T12:38:01.169Z,1004.15
2018-02-09T12:39:01.220Z,1004.22
2018-02-09T12:40:01.273Z,1004.17
2018-02-09T12:41:02.112Z,1004.17
2018-02-09T12:42:01.384Z,1004.11
2018-02-09T12:43:01.439Z,1004.13
2018-02-09T12:44:01.493Z,1004.08
2018-02-09T12:45:01.548Z,1004.11
2018-02-09T12:46:01.653Z,1004.06
2018-02-09T12:47:01.658Z,1004.08
2018-02-09T12:48:01.712Z,1004.04
2018-02-09T12:49:01.778Z,1003.99
2018-02-09T12:50:01.821Z,1004.01
2018-02-09T12:51:01.895Z,1004.05
2018-02-09T12:52:02.709Z,1004.04
2018-02-09T12:53:01.985Z,1004.08
2018-02-09T12:54:02.765Z,1004.03
2018-02-09T12:55:02.094Z,1004.02
2018-02-09T12:56:02.147Z,1003.97
2018-02-09T12:57:02.202Z,1003.97
2018-02-09T12:58:02.257Z,1003.97
2018-02-09T12:59:02.312Z,1003.92
2018-02-09T13:00:02.368Z,1003.93
2018-02-09T13:01:02.422Z,1003.90
2018-02-09T13:02:02.476Z,1003.92
2018-02-09T13:03:02.532Z,1003.94
2018-02-09T13:04:02.584Z,1003.89
2018-02-09T13:05:02.640Z,1003.90
2018-02-09T13:06:02.697Z,1003.88
2018-02-09T13:07:02.751Z,1003.92
2018-02-09T13:08:02.804Z,1003.86
2018-02-09T13:09:02.859Z,1003.84
2018-02-09T13:10:02.914Z,1003.85
2018-02-09T13:11:02.970Z,1003.86
2018-02-09T13:12:03.024Z,1003.84
2018-02-09T13:13:03.079Z,1003.86
2018-02-09T13:14:03.133Z,1003.87
2018-02-09T13:15:03.189Z,1003.82
2018-02-09T13:16:03.242Z,1003.82
2018-02-09T13:17:03.297Z,1003.80
2018-02-09T13:18:03.352Z,1003.77
2018-02-09T13:19:03.408Z,1003.78
2018-02-09T13:20:03.463Z,1003.80
2018-02-09T13:21:03.516Z,1003.79
2018-02-09T13:22:03.572Z,1003.78
2018-02-09T13:23:03.628Z,1003.77
2018-02-09T13:24:03.681Z,1003.78
2018-02-09T13:25:03.737Z,1003.75
2018-02-09T13:26:03.792Z,1003.75
2018-02-09T13:27:03.847Z,1003.68
2018-02-09T13:28:03.902Z,1003.71
2018-02-09T13:29:03.955Z,1003.76
2018-02-09T13:30:04.013Z,1003.74
2018-02-09T13:31:04.068Z,1003.71
2018-02-09T13:32:04.120Z,1003.73
2018-02-09T13:33:04.176Z,1003.66
2018-02-09T13:34:04.231Z,1003.64
2018-02-09T13:35:04.288Z,1003.69
2018-02-09T13:36:04.342Z,1003.68
2018-02-09T13:37:04.397Z,1003.63
2018-02-09T13:38:04.702Z,1003.66
2018-02-09T13:39:04.508Z,1003.63
2018-02-09T13:40:04.560Z,1003.65
2018-02-09T13:41:04.616Z,1003.62
2018-02-09T13:42:04.670Z,1003.66
2018-02-09T13:43:04.726Z,1003.64
2018-02-09T13:44:04.780Z,1003.63
2018-02-09T13:45:04.836Z,1003.60
2018-02-09T13:46:04.893Z,1003.59
2018-02-09T13:47:04.944Z,1003.58
2018-02-09T13:48:04.999Z,1003.60
2018-02-09T13:49:05.305Z,1003.56
2018-02-09T13:50:05.110Z,1003.59
2018-02-09T13:51:05.164Z,1003.57
2018-02-09T13:52:05.218Z,1003.55
2018-02-09T13:53:05.279Z,1003.58
2018-02-09T13:54:05.328Z,1003.55
2018-02-09T13:55:05.384Z,1003.57
2018-02-09T13:56:05.439Z,1003.52
2018-02-09T13:57:05.499Z,1003.50
2018-02-09T13:58:05.547Z,1003.53
2018-02-09T13:59:05.602Z,1003.51
2018-02-09T14:00:05.657Z,1003.51
2018-02-09T14:01:05.713Z,1003.47
2018-02-09T14:02:05.770Z,1003.46
2018-02-09T14:03:05.822Z,1003.49
2018-02-09T14:04:05.877Z,1003.48
2018-02-09T14:05:05.932Z,1003.49
2018-02-09T14:06:05.986Z,1003.48
2018-02-09T14:07:06.043Z,1003.49
2018-02-09T14:08:06.097Z,1003.48
2018-02-09T14:09:06.149Z,1003.49
2018-02-09T14:10:06.206Z,1003.46
2018-02-09T14:11:06.262Z,1003.47
2018-02-09T14:12:06.314Z,1003.46
2018-02-09T14:13:06.368Z,1003.49
2018-02-09T14:14:06.423Z,1003.45
2018-02-09T14:15:06.479Z,1003.47
2018-02-09T14:16:07.036Z,1003.43
2018-02-09T14:17:06.587Z,1003.47
2018-02-09T14:18:06.642Z,1003.44
2018-02-09T14:19:06.697Z,1003.48
2018-02-09T14:20:06.753Z,1003.45
2018-02-09T14:21:06.808Z,1003.45
2018-02-09T14:22:06.863Z,1003.45
2018-02-09T14:23:06.917Z,1003.45
2018-02-09T14:24:06.975Z,1003.47
2018-02-09T14:25:07.031Z,1003.44
2018-02-09T14:26:07.082Z,1003.45
2018-02-09T14:27:07.136Z,1003.46
2018-02-09T14:28:07.189Z,1003.47
2018-02-09T14:29:07.246Z,1003.48
2018-02-09T14:30:07.300Z,1003.44
2018-02-09T14:31:07.359Z,1003.49
2018-02-09T14:32:07.409Z,1003.49
2018-02-09T14:33:07.464Z,1003.50
2018-02-09T14:34:07.518Z,1003.50
2018-02-09T14:35:07.573Z,1003.50
2018-02-09T14:36:07.628Z,1003.49
2018-02-09T14:37:07.684Z,1003.52
2018-02-09T14:38:07.740Z,1003.53
2018-02-09T14:39:07.793Z,1003.48
2018-02-09T14:40:07.848Z,1003.48
2018-02-09T14:41:07.903Z,1003.48
2018-02-09T14:42:07.958Z,1003.47
2018-02-09T14:43:08.013Z,1003.54
2018-02-09T14:44:08.066Z,1003.51
2018-02-09T14:45:08.122Z,1003.49
2018-02-09T14:46:08.176Z,1003.47
2018-02-09T14:47:08.231Z,1003.45
2018-02-09T14:48:08.285Z,1003.45
2018-02-09T14:49:08.341Z,1003.43
2018-02-09T14:50:08.395Z,1003.43
2018-02-09T14:51:08.487Z,1003.44
2018-02-09T14:52:08.504Z,1003.41
2018-02-09T14:53:08.559Z,1003.41
2018-02-09T14:54:08.615Z,1003.42
2018-02-09T14:55:08.669Z,1003.40
2018-02-09T14:56:08.724Z,1003.41
2018-02-09T14:57:08.779Z,1003.42
2018-02-09T14:58:08.832Z,1003.40
2018-02-09T14:59:08.889Z,1003.41
2018-02-09T15:00:08.941Z,1003.44
2018-02-09T15:01:08.996Z,1003.38
2018-02-09T15:02:09.051Z,1003.40
2018-02-09T15:03:09.108Z,1003.39
2018-02-09T15:04:09.162Z,1003.40
2018-02-09T15:05:09.217Z,1003.44
2018-02-09T15:06:09.270Z,1003.43
2018-02-09T15:07:09.326Z,1003.45
2018-02-09T15:08:09.380Z,1003.41
2018-02-09T15:09:09.435Z,1003.42
2018-02-09T15:10:09.489Z,1003.43
2018-02-09T15:11:09.544Z,1003.46
2018-02-09T15:12:09.599Z,1003.44
2018-02-09T15:13:09.654Z,1003.45
2018-02-09T15:14:09.709Z,1003.43
2018-02-09T15:15:09.763Z,1003.44
2018-02-09T15:16:09.817Z,1003.46
2018-02-09T15:17:09.873Z,1003.47
2018-02-09T15:18:09.928Z,1003.47
2018-02-09T15:19:09.984Z,1003.47
2018-02-09T15:20:10.038Z,1003.48
2018-02-09T15:21:10.093Z,1003.48
2018-02-09T15:22:10.148Z,1003.48
2018-02-09T15:23:10.201Z,1003.50
2018-02-09T15:24:10.257Z,1003.46
2018-02-09T15:25:10.310Z,1003.49
2018-02-09T15:26:10.365Z,1003.49
2018-02-09T15:27:10.422Z,1003.48
2018-02-09T15:28:10.476Z,1003.43
2018-02-09T15:29:10.531Z,1003.51
2018-02-09T15:30:10.586Z,1003.47
2018-02-09T15:31:11.254Z,1003.48
2018-02-09T15:32:10.695Z,1003.50
2018-02-09T15:33:10.750Z,1003.50
2018-02-09T15:34:10.803Z,1003.47
2018-02-09T15:35:10.858Z,1003.45
2018-02-09T15:36:10.914Z,1003.43
2018-02-09T15:37:10.968Z,1003.44
2018-02-09T15:38:11.025Z,1003.42
2018-02-09T15:39:11.078Z,1003.39
2018-02-09T15:40:11.133Z,1003.41
2018-02-09T15:41:11.187Z,1003.40
2018-02-09T15:42:11.242Z,1003.37
2018-02-09T15:43:11.298Z,1003.35
2018-02-09T15:44:11.351Z,1003.36
2018-02-09T15:45:11.406Z,1003.37
2018-02-09T15:46:11.460Z,1003.36
2018-02-09T15:47:11.516Z,1003.38
2018-02-09T15:48:11.570Z,1003.37
2018-02-09T15:49:11.623Z,1003.38
2018-02-09T15:50:11.680Z,1003.38
2018-02-09T15:51:11.733Z,1003.40
2018-02-09T15:52:11.788Z,1003.38
2018-02-09T15:53:11.843Z,1003.43
2018-02-09T15:54:11.897Z,1003.41
2018-02-09T15:55:11.953Z,1003.37
2018-02-09T15:56:12.007Z,1003.39
2018-02-09T15:57:12.065Z,1003.35
2018-02-09T15:58:12.116Z,1003.34
2018-02-09T15:59:12.170Z,1003.33
2018-02-09T16:00:12.224Z,1003.41
2018-02-09T16:01:12.278Z,1003.35
2018-02-09T16:02:12.333Z,1003.43
2018-02-09T16:03:12.388Z,1003.39
2018-02-09T16:04:12.441Z,1003.39
2018-02-09T16:05:12.497Z,1003.37
2018-02-09T16:06:12.550Z,1003.41
2018-02-09T16:07:12.607Z,1003.38
2018-02-09T16:08:12.661Z,1003.38
2018-02-09T16:09:12.715Z,1003.37
2018-02-09T16:10:12.769Z,1003.39
2018-02-09T16:11:12.824Z,1003.37
2018-02-09T16:12:12.880Z,1003.39
2018-02-09T16:13:12.933Z,1003.41
2018-02-09T16:14:12.988Z,1003.40
2018-02-09T16:15:13.057Z,1003.38
2018-02-09T16:16:13.095Z,1003.37
2018-02-09T16:17:13.151Z,1003.38
2018-02-09T16:18:13.206Z,1003.39
2018-02-09T16:19:13.260Z,1003.34
2018-02-09T16:20:13.315Z,1003.36
2018-02-09T16:21:13.369Z,1003.36
2018-02-09T16:22:13.424Z,1003.36
2018-02-09T16:23:13.479Z,1003.35
2018-02-09T16:24:13.531Z,1003.32
2018-02-09T16:25:13.586Z,1003.35
2018-02-09T16:26:13.641Z,1003.35
2018-02-09T16:27:13.695Z,1003.34
2018-02-09T16:28:13.750Z,1003.34
2018-02-09T16:29:13.806Z,1003.38
2018-02-09T16:30:13.858Z,1003.35
2018-02-09T16:31:13.914Z,1003.39
2018-02-09T16:32:13.968Z,1003.37
2018-02-09T16:33:14.023Z,1003.41
2018-02-09T16:34:14.076Z,1003.38
2018-02-09T16:35:14.132Z,1003.37
2018-02-09T16:36:14.189Z,1003.39
2018-02-09T16:37:14.240Z,1003.39
2018-02-09T16:38:14.296Z,1003.37
2018-02-09T16:39:14.881Z,1003.38
2018-02-09T16:40:14.404Z,1003.41
2018-02-09T16:41:14.457Z,1003.41
2018-02-09T16:42:14.513Z,1003.43
2018-02-09T16:43:14.568Z,1003.43
2018-02-09T16:44:14.622Z,1003.43
2018-02-09T16:45:14.676Z,1003.44
2018-02-09T16:46:14.731Z,1003.44
2018-02-09T16:47:14.786Z,1003.42
2018-02-09T16:48:14.840Z,1003.41
2018-02-09T16:49:14.895Z,1003.41
2018-02-09T16:50:14.952Z,1003.43
2018-02-09T16:51:15.005Z,1003.42
2018-02-09T16:52:15.059Z,1003.44
2018-02-09T16:53:15.113Z,1003.45
2018-02-09T16:54:15.167Z,1003.46
2018-02-09T16:55:15.222Z,1003.46
2018-02-09T16:56:15.274Z,1003.47
2018-02-09T16:57:15.329Z,1003.45
2018-02-09T16:58:15.383Z,1003.41
2018-02-09T16:59:15.439Z,1003.39
2018-02-09T17:00:15.493Z,1003.41
2018-02-09T17:01:15.547Z,1003.44
2018-02-09T17:02:15.602Z,1003.40
2018-02-09T17:03:15.656Z,1003.43
2018-02-09T17:04:15.709Z,1003.43
2018-02-09T17:05:15.768Z,1003.46
2018-02-09T17:06:15.820Z,1003.42
2018-02-09T17:07:15.874Z,1003.45
2018-02-09T17:08:15.927Z,1003.44
2018-02-09T17:09:15.982Z,1003.41
2018-02-09T17:10:16.037Z,1003.44
2018-02-09T17:11:16.092Z,1003.46
2018-02-09T17:12:16.146Z,1003.51
2018-02-09T17:13:16.200Z,1003.45
2018-02-09T17:14:16.254Z,1003.49
2018-02-09T17:15:16.560Z,1003.44
2018-02-09T17:16:16.362Z,1003.45
2018-02-09T17:17:16.418Z,1003.51
2018-02-09T17:18:16.472Z,1003.52
2018-02-09T17:19:16.576Z,1003.52
2018-02-09T17:20:16.579Z,1003.54
2018-02-09T17:21:16.634Z,1003.58
2018-02-09T17:22:16.688Z,1003.53
2018-02-09T17:23:16.743Z,1003.50
2018-02-09T17:24:16.796Z,1003.47
2018-02-09T17:25:16.850Z,1003.50
2018-02-09T17:26:16.907Z,1003.46
2018-02-09T17:27:16.959Z,1003.47
2018-02-09T17:28:17.013Z,1003.46
2018-02-09T17:29:17.067Z,1003.47
2018-02-09T17:30:17.121Z,1003.51
2018-02-09T17:31:17.175Z,1003.48
2018-02-09T17:32:17.229Z,1003.51
2018-02-09T17:33:17.283Z,1003.50
2018-02-09T17:34:17.339Z,1003.53
2018-02-09T17:35:17.391Z,1003.51
2018-02-09T17:36:17.450Z,1003.47
2018-02-09T17:37:17.502Z,1003.52
2018-02-09T17:38:17.556Z,1003.48
2018-02-09T17:39:17.607Z,1003.47
2018-02-09T17:40:17.662Z,1003.48
2018-02-09T17:41:17.715Z,1003.46
2018-02-09T17:42:17.768Z,1003.48
2018-02-09T17:43:17.824Z,1003.47
2018-02-09T17:44:17.880Z,1003.48
2018-02-09T17:45:17.932Z,1003.51
2018-02-09T17:46:17.986Z,1003.46
2018-02-09T17:47:18.039Z,1003.47
2018-02-09T17:48:18.090Z,1003.43
2018-02-09T17:49:18.146Z,1003.45
2018-02-09T17:50:18.198Z,1003.45
2018-02-09T17:51:18.252Z,1003.45
2018-02-09T17:52:18.305Z,1003.45
2018-02-09T17:53:18.359Z,1003.47
2018-02-09T17:54:18.413Z,1003.43
2018-02-09T17:55:18.467Z,1003.46
2018-02-09T17:56:18.519Z,1003.46
2018-02-09T17:57:18.574Z,1003.46
2018-02-09T17:58:18.628Z,1003.47
2018-02-09T17:59:18.681Z,1003.50
2018-02-09T18:00:18.735Z,1003.48
2018-02-09T18:01:18.844Z,1003.48
2018-02-09T18:02:18.843Z,1003.50
2018-02-09T18:03:18.895Z,1003.50
2018-02-09T18:04:18.949Z,1003.53
2018-02-09T18:05:19.002Z,1003.50
2018-02-09T18:06:19.056Z,1003.51
2018-02-09T18:07:19.360Z,1003.51
2018-02-09T18:08:19.162Z,1003.51
2018-02-09T18:09:19.216Z,1003.53
2018-02-09T18:10:19.267Z,1003.50
2018-02-09T18:11:19.325Z,1003.54
2018-02-09T18:12:19.626Z,1003.50
2018-02-09T18:13:19.433Z,1003.50
2018-02-09T18:14:19.482Z,1003.55
2018-02-09T18:15:19.536Z,1003.55
2018-02-09T18:16:19.589Z,1003.51
2018-02-09T18:17:19.641Z,1003.51
2018-02-09T18:18:19.694Z,1003.52
2018-02-09T18:19:19.751Z,1003.48
2018-02-09T18:20:19.800Z,1003.47
2018-02-09T18:21:19.854Z,1003.43
2018-02-09T18:22:19.907Z,1003.45
2018-02-09T18:23:19.960Z,1003.45
2018-02-09T18:24:20.013Z,1003.45
2018-02-09T18:25:20.065Z,1003.45
2018-02-09T18:26:20.120Z,1003.47
2018-02-09T18:27:20.173Z,1003.45
2018-02-09T18:28:20.225Z,1003.48
2018-02-09T18:29:20.278Z,1003.50
2018-02-09T18:30:20.332Z,1003.46
2018-02-09T18:31:20.383Z,1003.49
2018-02-09T18:32:20.437Z,1003.47
2018-02-09T18:33:20.489Z,1003.50
2018-02-09T18:34:20.543Z,1003.55
2018-02-09T18:35:20.621Z,1003.56
2018-02-09T18:36:20.647Z,1003.54
2018-02-09T18:37:20.705Z,1003.57
2018-02-09T18:38:20.754Z,1003.58
2018-02-09T18:39:20.807Z,1003.59
2018-02-09T18:40:20.859Z,1003.58
2018-02-09T18:41:20.912Z,1003.60
2018-02-09T18:42:20.975Z,1003.60
2018-02-09T18:43:21.017Z,1003.63
2018-02-09T18:44:21.070Z,1003.63
2018-02-09T18:45:21.121Z,1003.65
2018-02-09T18:46:21.176Z,1003.63
2018-02-09T18:47:21.227Z,1003.62
2018-02-09T18:48:21.291Z,1003.67
2018-02-09T18:49:21.332Z,1003.64
2018-02-09T18:50:21.384Z,1003.63
2018-02-09T18:51:21.439Z,1003.62
2018-02-09T18:52:21.741Z,1003.63
2018-02-09T18:53:21.544Z,1003.61
2018-02-09T18:54:21.596Z,1003.65
2018-02-09T18:55:21.662Z,1003.64
2018-02-09T18:56:21.700Z,1003.61
2018-02-09T18:57:21.753Z,1003.62
2018-02-09T18:58:21.805Z,1003.60
2018-02-09T18:59:21.859Z,1003.60
2018-02-09T19:00:21.915Z,1003.64
2018-02-09T19:01:21.964Z,1003.66
2018-02-09T19:02:22.016Z,1003.63
2018-02-09T19:03:22.069Z,1003.64
2018-02-09T19:04:22.125Z,1003.59
2018-02-09T19:05:22.174Z,1003.61
2018-02-09T19:06:22.226Z,1003.60
2018-02-09T19:07:22.279Z,1003.61
2018-02-09T19:08:22.330Z,1003.57
2018-02-09T19:09:22.434Z,1003.57
2018-02-09T19:10:22.437Z,1003.57
2018-02-09T19:11:22.490Z,1003.56
2018-02-09T19:12:22.540Z,1003.59
2018-02-09T19:13:22.594Z,1003.57
2018-02-09T19:14:22.647Z,1003.60
2018-02-09T19:15:22.699Z,1003.60
2018-02-09T19:16:22.750Z,1003.58
2018-02-09T19:17:22.804Z,1003.62
2018-02-09T19:18:22.857Z,1003.58
2018-02-09T19:19:22.910Z,1003.60
2018-02-09T19:20:22.962Z,1003.58
2018-02-09T19:21:23.013Z,1003.55
2018-02-09T19:22:23.072Z,1003.57
2018-02-09T19:23:23.120Z,1003.53
2018-02-09T19:24:23.172Z,1003.52
2018-02-09T19:25:23.223Z,1003.58
2018-02-09T19:26:23.276Z,1003.59
2018-02-09T19:27:23.329Z,1003.61
2018-02-09T19:28:23.382Z,1003.59
2018-02-09T19:29:23.434Z,1003.56
2018-02-09T19:30:23.487Z,1003.59
2018-02-09T19:31:23.539Z,1003.58
2018-02-09T19:32:23.840Z,1003.62
2018-02-09T19:33:23.643Z,1003.59
2018-02-09T19:34:23.695Z,1003.58
2018-02-09T19:35:23.749Z,1003.60
2018-02-09T19:36:23.800Z,1003.61
2018-02-09T19:37:23.853Z,1003.59
2018-02-09T19:38:23.907Z,1003.59
2018-02-09T19:39:23.957Z,1003.61
2018-02-09T19:40:24.052Z,1003.63
2018-02-09T19:41:24.063Z,1003.69
2018-02-09T19:42:24.116Z,1003.69
2018-02-09T19:43:24.167Z,1003.70
2018-02-09T19:44:24.219Z,1003.70
2018-02-09T19:45:24.272Z,1003.75
2018-02-09T19:46:24.324Z,1003.71
2018-02-09T19:47:24.378Z,1003.71
2018-02-09T19:48:24.429Z,1003.76
2018-02-09T19:49:24.482Z,1003.76
2018-02-09T19:50:24.535Z,1003.78
2018-02-09T19:51:24.587Z,1003.78
2018-02-09T19:52:24.638Z,1003.82
2018-02-09T19:53:24.690Z,1003.84